createdAt,value
2022-11-23T00:00:29.092Z,23.66
2022-11-23T00:02:44.607Z,23.79
2022-11-23T00:03:49.490Z,23.68
2022-11-23T00:04:51.526Z,23.69
2022-11-23T00:05:53.875Z,23.69
2022-11-23T00:06:56.158Z,23.71
2022-11-23T00:07:59.058Z,23.71
2022-11-23T00:09:01.840Z,23.69
2022-11-23T00:10:04.697Z,23.71
2022-11-23T00:11:06.871Z,23.72
2022-11-23T00:12:08.933Z,23.72
2022-11-23T00:13:11.166Z,23.72
2022-11-23T00:14:13.223Z,23.72
2022-11-23T00:15:15.803Z,23.72
2022-11-23T00:16:23.677Z,23.72
2022-11-23T00:17:25.810Z,23.73
2022-11-23T00:18:28.842Z,23.73
2022-11-23T00:19:32.476Z,23.73
2022-11-23T00:20:34.897Z,23.73
2022-11-23T00:21:37.210Z,23.73
2022-11-23T00:22:39.402Z,23.73
2022-11-23T00:23:41.579Z,23.73
2022-11-23T00:24:43.686Z,23.72
2022-11-23T00:25:45.757Z,23.68
2022-11-23T00:26:48.833Z,23.51
2022-11-23T00:27:51.740Z,23.30
2022-11-23T00:28:54.794Z,23.01
2022-11-23T00:29:58.342Z,22.73
2022-11-23T00:31:01.011Z,22.44
2022-11-23T00:32:04.226Z,22.24
2022-11-23T00:33:06.367Z,22.09
2022-11-23T00:34:08.633Z,21.95
2022-11-23T00:35:10.698Z,21.82
2022-11-23T00:36:14.308Z,21.72
2022-11-23T00:37:16.338Z,21.71
2022-11-23T00:38:18.401Z,21.76
2022-11-23T00:39:20.691Z,21.83
2022-11-23T00:40:23.933Z,21.91
2022-11-23T00:41:27.605Z,21.97
2022-11-23T00:42:32.589Z,22.06
2022-11-23T00:43:35.361Z,22.13
2022-11-23T00:44:37.471Z,22.21
2022-11-23T00:45:41.382Z,22.28
2022-11-23T00:46:43.589Z,22.35
2022-11-23T00:47:45.663Z,22.40
2022-11-23T00:48:50.028Z,22.46
2022-11-23T00:49:53.083Z,22.53
2022-11-23T00:50:55.313Z,22.58
2022-11-23T00:51:59.574Z,22.64
2022-11-23T00:53:02.730Z,22.71
2022-11-23T00:54:05.477Z,22.74
2022-11-23T00:55:08.020Z,22.79
2022-11-23T00:56:10.580Z,22.83
2022-11-23T00:57:13.310Z,22.88
2022-11-23T00:58:15.496Z,22.92
2022-11-23T00:59:18.945Z,22.96
2022-11-23T01:00:21.276Z,22.99
2022-11-23T01:01:25.982Z,23.04
2022-11-23T01:02:28.295Z,23.08
2022-11-23T01:03:30.503Z,23.11
2022-11-23T01:04:34.384Z,23.13
2022-11-23T01:05:36.853Z,23.15
2022-11-23T01:06:39.869Z,23.17
2022-11-23T01:07:43.679Z,23.20
2022-11-23T01:08:53.894Z,23.23
2022-11-23T01:09:57.533Z,23.25
2022-11-23T01:12:16.952Z,23.42
2022-11-23T01:13:20.857Z,23.32
2022-11-23T01:14:23.139Z,23.34
2022-11-23T01:15:25.727Z,23.35
2022-11-23T01:16:33.613Z,23.37
2022-11-23T01:17:36.685Z,23.39
2022-11-23T01:18:38.888Z,23.42
2022-11-23T01:19:42.943Z,23.43
2022-11-23T01:20:45.187Z,23.45
2022-11-23T01:21:47.256Z,23.46
2022-11-23T01:22:51.708Z,23.47
2022-11-23T01:23:58.500Z,23.48
2022-11-23T01:25:00.486Z,23.49
2022-11-23T01:26:06.765Z,23.51
2022-11-23T01:27:09.007Z,23.51
2022-11-23T01:28:11.018Z,23.52
2022-11-23T01:29:13.849Z,23.54
2022-11-23T01:30:16.470Z,23.54
2022-11-23T01:31:20.456Z,23.55
2022-11-23T01:32:22.573Z,23.55
2022-11-23T01:33:24.803Z,23.56
2022-11-23T01:34:26.917Z,23.56
2022-11-23T01:35:29.153Z,23.57
2022-11-23T01:36:32.138Z,23.57
2022-11-23T01:37:35.876Z,23.57
2022-11-23T01:38:38.720Z,23.58
2022-11-23T01:39:41.280Z,23.59
2022-11-23T01:40:44.439Z,23.58
2022-11-23T01:41:46.848Z,23.58
2022-11-23T01:42:59.749Z,23.60
2022-11-23T01:44:30.524Z,23.60
2022-11-23T01:45:35.970Z,23.61
2022-11-23T01:46:38.806Z,23.60
2022-11-23T01:47:41.827Z,23.60
2022-11-23T01:48:47.281Z,23.60
2022-11-23T01:49:50.986Z,23.58
2022-11-23T01:50:53.348Z,23.58
2022-11-23T01:51:56.432Z,23.58
2022-11-23T01:52:58.457Z,23.58
2022-11-23T01:55:16.682Z,23.71
2022-11-23T01:56:22.131Z,23.61
2022-11-23T01:58:42.825Z,23.71
2022-11-23T01:59:45.041Z,23.62
2022-11-23T02:00:48.586Z,23.62
2022-11-23T02:01:52.107Z,23.61
2022-11-23T02:02:56.609Z,23.62
2022-11-23T02:03:59.990Z,23.63
2022-11-23T02:05:02.413Z,23.64
2022-11-23T02:06:07.288Z,23.64
2022-11-23T02:07:10.548Z,23.65
2022-11-23T02:08:13.836Z,23.65
2022-11-23T02:09:16.292Z,23.64
2022-11-23T02:10:18.962Z,23.65
2022-11-23T02:11:21.144Z,23.65
2022-11-23T02:12:23.347Z,23.65
2022-11-23T02:13:25.521Z,23.66
2022-11-23T02:14:27.600Z,23.66
2022-11-23T02:15:29.782Z,23.66
2022-11-23T02:16:31.960Z,23.67
2022-11-23T02:17:34.264Z,23.66
2022-11-23T02:18:37.168Z,23.65
2022-11-23T02:19:58.299Z,23.66
2022-11-23T02:21:02.677Z,23.66
2022-11-23T02:22:07.392Z,23.63
2022-11-23T02:23:19.328Z,23.60
2022-11-23T02:24:25.091Z,23.56
2022-11-23T02:25:47.158Z,23.49
2022-11-23T02:26:51.408Z,23.46
2022-11-23T02:27:54.125Z,23.40
2022-11-23T02:29:03.737Z,23.34
2022-11-23T02:30:09.246Z,23.30
2022-11-23T02:31:11.487Z,23.25
2022-11-23T02:33:31.260Z,23.30
2022-11-23T02:34:33.537Z,23.16
2022-11-23T02:35:35.522Z,23.14
2022-11-23T02:36:41.371Z,23.11
2022-11-23T02:37:43.717Z,23.09
2022-11-23T02:38:46.387Z,23.07
2022-11-23T02:39:49.501Z,23.05
2022-11-23T02:40:51.713Z,23.03
2022-11-23T02:41:55.761Z,23.01
2022-11-23T02:42:58.631Z,23.00
2022-11-23T02:44:03.708Z,22.99
2022-11-23T02:45:10.316Z,22.98
2022-11-23T02:46:13.459Z,22.96
2022-11-23T02:47:16.697Z,22.96
2022-11-23T02:48:18.971Z,22.95
2022-11-23T02:49:20.970Z,22.93
2022-11-23T02:50:25.199Z,22.93
2022-11-23T02:51:27.266Z,22.91
2022-11-23T02:52:29.813Z,22.91
2022-11-23T02:53:32.473Z,22.90
2022-11-23T02:54:34.745Z,22.90
2022-11-23T02:55:36.926Z,22.90
2022-11-23T02:56:39.880Z,22.88
2022-11-23T02:57:43.643Z,22.89
2022-11-23T02:58:45.982Z,22.86
2022-11-23T02:59:49.355Z,22.87
2022-11-23T03:00:52.408Z,22.85
2022-11-23T03:01:55.480Z,22.85
2022-11-23T03:02:58.385Z,22.84
2022-11-23T03:04:00.527Z,22.84
2022-11-23T03:05:05.066Z,22.83
2022-11-23T03:06:08.239Z,22.83
2022-11-23T03:07:11.311Z,22.83
2022-11-23T03:08:14.359Z,22.81
2022-11-23T03:09:17.786Z,22.81
2022-11-23T03:10:20.176Z,22.81
2022-11-23T03:11:25.888Z,22.80
2022-11-23T03:12:29.372Z,22.79
2022-11-23T03:13:32.320Z,22.80
2022-11-23T03:14:34.991Z,22.79
2022-11-23T03:15:37.092Z,22.80
2022-11-23T03:16:39.915Z,22.78
2022-11-23T03:17:42.119Z,22.78
2022-11-23T03:18:46.124Z,22.77
2022-11-23T03:19:48.348Z,22.77
2022-11-23T03:20:50.815Z,22.77
2022-11-23T03:21:53.111Z,22.77
2022-11-23T03:22:55.549Z,22.77
2022-11-23T03:23:59.139Z,22.77
2022-11-23T03:25:01.342Z,22.71
2022-11-23T03:26:07.320Z,22.71
2022-11-23T03:27:10.132Z,22.76
2022-11-23T03:28:13.780Z,22.76
2022-11-23T03:29:15.969Z,22.76
2022-11-23T03:30:18.177Z,22.76
2022-11-23T03:31:20.806Z,22.75
2022-11-23T03:32:23.151Z,22.75
2022-11-23T03:33:27.194Z,22.75
2022-11-23T03:34:30.418Z,22.75
2022-11-23T03:35:33.134Z,22.75
2022-11-23T03:36:47.317Z,22.74
2022-11-23T03:37:50.081Z,22.75
2022-11-23T03:38:53.061Z,22.74
2022-11-23T03:39:57.542Z,22.74
2022-11-23T03:41:19.158Z,22.73
2022-11-23T03:42:23.200Z,22.73
2022-11-23T03:43:26.788Z,22.73
2022-11-23T03:44:29.011Z,22.72
2022-11-23T03:45:32.361Z,22.72
2022-11-23T03:46:34.732Z,22.72
2022-11-23T03:47:37.471Z,22.71
2022-11-23T03:48:40.340Z,22.70
2022-11-23T03:49:42.765Z,22.72
2022-11-23T03:50:44.976Z,22.71
2022-11-23T03:51:47.256Z,22.71
2022-11-23T03:52:50.640Z,22.72
2022-11-23T03:53:52.971Z,22.71
2022-11-23T03:54:55.733Z,22.71
2022-11-23T03:55:58.718Z,22.71
2022-11-23T03:57:02.072Z,22.71
2022-11-23T03:58:04.426Z,22.71
2022-11-23T03:59:08.937Z,22.71
2022-11-23T04:00:12.095Z,22.71
2022-11-23T04:01:18.876Z,22.71
2022-11-23T04:02:22.374Z,22.71
2022-11-23T04:03:26.323Z,22.71
2022-11-23T04:04:30.438Z,22.71
2022-11-23T04:05:43.939Z,22.71
2022-11-23T04:07:05.420Z,22.71
2022-11-23T04:08:12.567Z,22.70
2022-11-23T04:09:14.940Z,22.70
2022-11-23T04:10:37.676Z,22.68
2022-11-23T04:11:44.433Z,22.68
2022-11-23T04:12:51.563Z,22.67
2022-11-23T04:13:54.123Z,22.67
2022-11-23T04:14:56.843Z,22.65
2022-11-23T04:15:59.561Z,22.65
2022-11-23T04:17:01.634Z,22.66
2022-11-23T04:18:05.040Z,22.65
2022-11-23T04:19:07.390Z,22.66
2022-11-23T04:20:11.503Z,22.65
2022-11-23T04:21:13.696Z,22.66
2022-11-23T04:22:16.223Z,22.66
2022-11-23T04:23:19.785Z,22.66
2022-11-23T04:24:23.289Z,22.66
2022-11-23T04:25:28.343Z,22.67
2022-11-23T04:26:30.903Z,22.67
2022-11-23T04:27:33.677Z,22.66
2022-11-23T04:28:36.867Z,22.66
2022-11-23T04:29:40.051Z,22.67
2022-11-23T04:30:43.540Z,22.67
2022-11-23T04:31:46.769Z,22.67
2022-11-23T04:32:51.714Z,22.66
2022-11-23T04:33:55.749Z,22.67
2022-11-23T04:34:58.188Z,22.67
2022-11-23T04:36:01.183Z,22.67
2022-11-23T04:37:03.446Z,22.67
2022-11-23T04:38:08.069Z,22.67
2022-11-23T04:39:12.930Z,22.68
2022-11-23T04:41:35.464Z,22.78
2022-11-23T04:42:39.090Z,22.67
2022-11-23T04:43:42.102Z,22.66
2022-11-23T04:44:44.376Z,22.66
2022-11-23T04:45:47.340Z,22.67
2022-11-23T04:46:51.539Z,22.67
2022-11-23T04:47:54.403Z,22.66
2022-11-23T04:48:58.419Z,22.67
2022-11-23T04:50:01.171Z,22.66
2022-11-23T04:51:04.340Z,22.67
2022-11-23T04:52:08.413Z,22.66
2022-11-23T04:53:12.600Z,22.67
2022-11-23T04:54:16.938Z,22.66
2022-11-23T04:55:20.943Z,22.67
2022-11-23T04:56:24.962Z,22.67
2022-11-23T04:57:27.593Z,22.67
2022-11-23T04:58:34.200Z,22.68
2022-11-23T04:59:34.147Z,22.67
2022-11-23T05:00:37.805Z,22.67
2022-11-23T05:01:40.271Z,22.68
2022-11-23T05:03:00.119Z,22.67
2022-11-23T05:04:04.847Z,22.67
2022-11-23T05:05:07.949Z,22.66
2022-11-23T05:06:11.767Z,22.67
2022-11-23T05:07:16.571Z,22.66
2022-11-23T05:08:21.041Z,22.66
2022-11-23T05:09:25.082Z,22.65
2022-11-23T05:10:41.463Z,22.66
2022-11-23T05:11:44.911Z,22.66
2022-11-23T05:12:47.345Z,22.66
2022-11-23T05:13:49.639Z,22.66
2022-11-23T05:14:52.020Z,22.66
2022-11-23T05:15:55.992Z,22.68
2022-11-23T05:16:59.999Z,22.68
2022-11-23T05:18:03.600Z,22.68
2022-11-23T05:19:06.956Z,22.68
2022-11-23T05:20:11.579Z,22.70
2022-11-23T05:21:15.736Z,22.71
2022-11-23T05:22:18.110Z,22.71
2022-11-23T05:23:20.183Z,22.72
2022-11-23T05:24:22.385Z,22.73
2022-11-23T05:25:26.821Z,22.73
2022-11-23T05:26:33.720Z,22.74
2022-11-23T05:27:35.799Z,22.75
2022-11-23T05:28:40.868Z,22.75
2022-11-23T05:29:42.577Z,22.75
2022-11-23T05:30:46.806Z,22.76
2022-11-23T05:31:49.532Z,22.77
2022-11-23T05:32:52.556Z,22.77
2022-11-23T05:33:55.141Z,22.77
2022-11-23T05:34:59.706Z,22.78
2022-11-23T05:36:03.511Z,22.79
2022-11-23T05:37:07.597Z,22.79
2022-11-23T05:38:11.050Z,22.79
2022-11-23T05:39:33.443Z,22.79
2022-11-23T05:40:36.041Z,22.81
2022-11-23T05:41:39.186Z,22.80
2022-11-23T05:42:43.283Z,22.81
2022-11-23T05:43:47.511Z,22.81
2022-11-23T05:44:51.562Z,22.81
2022-11-23T05:46:01.193Z,22.81
2022-11-23T05:47:04.498Z,22.81
2022-11-23T05:48:08.708Z,22.81
2022-11-23T05:49:15.378Z,22.81
2022-11-23T05:50:18.662Z,22.82
2022-11-23T05:51:21.524Z,22.82
2022-11-23T05:52:25.954Z,22.82
2022-11-23T05:53:28.349Z,22.82
2022-11-23T05:54:34.897Z,22.83
2022-11-23T05:55:38.965Z,22.83
2022-11-23T05:56:41.734Z,22.83
2022-11-23T05:57:45.667Z,22.83
2022-11-23T05:58:47.760Z,22.83
2022-11-23T05:59:50.950Z,22.84
2022-11-23T06:00:59.564Z,22.83
2022-11-23T06:02:02.605Z,22.84
2022-11-23T06:03:07.077Z,22.84
2022-11-23T06:04:09.689Z,22.84
2022-11-23T06:05:14.034Z,22.84
2022-11-23T06:06:18.204Z,22.84
2022-11-23T06:07:20.993Z,22.85
2022-11-23T06:08:28.173Z,22.84
2022-11-23T06:09:30.982Z,22.84
2022-11-23T06:10:35.987Z,22.84
2022-11-23T06:11:38.054Z,22.84
2022-11-23T06:12:43.024Z,22.84
2022-11-23T06:13:48.279Z,22.84
2022-11-23T06:14:50.519Z,22.84
2022-11-23T06:15:54.593Z,22.85
2022-11-23T06:16:59.761Z,22.85
2022-11-23T06:18:10.517Z,22.85
2022-11-23T06:19:14.489Z,22.84
2022-11-23T06:20:17.218Z,22.85
2022-11-23T06:21:21.292Z,22.84
2022-11-23T06:22:23.474Z,22.84
2022-11-23T06:23:37.206Z,22.84
2022-11-23T06:24:39.854Z,22.86
2022-11-23T06:25:47.201Z,22.86
2022-11-23T06:26:57.378Z,22.86
2022-11-23T06:28:01.316Z,22.85
2022-11-23T06:29:05.245Z,22.85
2022-11-23T06:30:09.960Z,22.84
2022-11-23T06:31:13.191Z,22.84
2022-11-23T06:32:17.317Z,22.86
2022-11-23T06:33:19.476Z,22.86
2022-11-23T06:34:23.617Z,22.86
2022-11-23T06:35:26.962Z,22.85
2022-11-23T06:36:29.598Z,22.86
2022-11-23T06:37:34.223Z,22.86
2022-11-23T06:38:36.631Z,22.86
2022-11-23T06:39:41.013Z,22.87
2022-11-23T06:40:44.161Z,22.86
2022-11-23T06:41:47.412Z,22.87
2022-11-23T06:42:51.036Z,22.87
2022-11-23T06:43:55.063Z,22.87
2022-11-23T06:44:59.179Z,22.88
2022-11-23T06:46:04.028Z,22.83
2022-11-23T06:47:06.542Z,22.83
2022-11-23T06:48:09.542Z,22.89
2022-11-23T06:49:13.585Z,22.89
2022-11-23T06:50:17.773Z,22.89
2022-11-23T06:51:21.365Z,22.88
2022-11-23T06:52:25.028Z,22.89
2022-11-23T06:53:28.394Z,22.90
2022-11-23T06:54:32.372Z,22.90
2022-11-23T06:55:36.538Z,22.89
2022-11-23T06:56:40.162Z,22.90
2022-11-23T06:57:45.128Z,22.90
2022-11-23T06:58:47.472Z,22.90
2022-11-23T06:59:51.479Z,22.90
2022-11-23T07:01:00.781Z,22.91
2022-11-23T07:02:03.660Z,22.90
2022-11-23T07:04:32.048Z,23.00
2022-11-23T07:05:35.042Z,22.91
2022-11-23T07:06:41.077Z,22.89
2022-11-23T07:07:45.524Z,22.90
2022-11-23T07:08:50.736Z,22.90
2022-11-23T07:09:57.511Z,22.90
2022-11-23T07:11:03.941Z,22.90
2022-11-23T07:12:06.943Z,22.90
2022-11-23T07:13:10.103Z,22.90
2022-11-23T07:14:12.434Z,22.90
2022-11-23T07:15:16.479Z,22.90
2022-11-23T07:16:19.863Z,22.90
2022-11-23T07:17:23.954Z,22.89
2022-11-23T07:18:27.172Z,22.89
2022-11-23T07:19:31.450Z,22.90
2022-11-23T07:20:34.220Z,22.89
2022-11-23T07:21:36.295Z,22.90
2022-11-23T07:22:38.753Z,22.90
2022-11-23T07:23:40.954Z,22.91
2022-11-23T07:24:46.743Z,22.91
2022-11-23T07:25:48.087Z,22.91
2022-11-23T07:26:50.717Z,22.91
2022-11-23T07:27:56.705Z,22.91
2022-11-23T07:28:59.375Z,22.91
2022-11-23T07:30:02.723Z,22.91
2022-11-23T07:31:06.137Z,22.91
2022-11-23T07:32:09.280Z,22.91
2022-11-23T07:33:12.161Z,22.91
2022-11-23T07:34:15.052Z,22.91
2022-11-23T07:38:24.515Z,22.92
2022-11-23T07:39:48.909Z,22.92
2022-11-23T07:40:34.016Z,22.92
2022-11-23T07:46:57.059Z,22.93
2022-11-23T07:48:01.408Z,22.92
2022-11-23T07:49:03.672Z,22.93
2022-11-23T07:50:07.670Z,22.92
2022-11-23T07:52:13.726Z,22.92
2022-11-23T07:53:15.803Z,22.94
2022-11-23T07:55:22.224Z,22.93
2022-11-23T07:56:24.326Z,22.94
2022-11-23T07:57:27.239Z,22.94
2022-11-23T07:58:29.216Z,22.94
2022-11-23T07:59:32.311Z,22.93
2022-11-23T08:00:34.897Z,22.93
2022-11-23T08:02:52.754Z,22.92
2022-11-23T08:03:46.343Z,22.92
2022-11-23T08:05:50.250Z,22.93
2022-11-23T08:06:53.095Z,22.93
2022-11-23T08:07:59.815Z,22.93
2022-11-23T08:09:02.662Z,22.94
2022-11-23T08:10:07.836Z,22.93
2022-11-23T08:11:09.955Z,22.94
2022-11-23T08:12:13.684Z,22.93
2022-11-23T08:13:15.797Z,22.93
2022-11-23T08:16:24.914Z,22.94
2022-11-23T08:17:28.065Z,22.94
2022-11-23T08:18:31.138Z,22.94
2022-11-23T08:19:33.596Z,22.94
2022-11-23T08:20:36.760Z,22.94
2022-11-23T08:21:38.870Z,22.94
2022-11-23T08:22:41.387Z,22.95
2022-11-23T08:23:43.489Z,22.94
2022-11-23T08:24:46.436Z,22.94
2022-11-23T08:25:48.586Z,22.95
2022-11-23T08:26:51.125Z,22.94
2022-11-23T08:27:58.272Z,22.95
2022-11-23T08:29:01.070Z,22.93
2022-11-23T08:30:04.322Z,22.91
2022-11-23T08:31:09.541Z,22.87
2022-11-23T08:32:12.396Z,22.85
2022-11-23T08:33:14.466Z,22.83
2022-11-23T08:34:16.978Z,22.81
2022-11-23T08:35:19.049Z,22.78
2022-11-23T08:36:21.523Z,22.76
2022-11-23T08:37:23.963Z,22.73
2022-11-23T08:38:27.155Z,22.70
2022-11-23T08:39:29.273Z,22.67
2022-11-23T08:40:32.404Z,22.65
2022-11-23T08:41:35.050Z,22.62
2022-11-23T08:42:37.161Z,22.60
2022-11-23T08:43:39.707Z,22.58
2022-11-23T08:44:41.815Z,22.55
2022-11-23T08:45:43.972Z,22.52
2022-11-23T08:46:46.477Z,22.47
2022-11-23T08:47:49.137Z,22.45
2022-11-23T08:48:51.241Z,22.43
2022-11-23T08:49:53.853Z,22.42
2022-11-23T08:50:59.312Z,22.40
2022-11-23T08:52:01.467Z,22.39
2022-11-23T08:53:04.068Z,22.37
2022-11-23T08:54:06.277Z,22.35
2022-11-23T08:55:08.585Z,22.32
2022-11-23T08:56:12.713Z,22.31
2022-11-23T08:57:14.844Z,22.29
2022-11-23T08:58:16.960Z,22.25
2022-11-23T08:59:19.811Z,22.25
2022-11-23T09:00:22.603Z,22.24
2022-11-23T09:01:25.053Z,22.22
2022-11-23T09:02:27.790Z,22.20
2022-11-23T09:03:29.702Z,22.20
2022-11-23T09:04:32.232Z,22.19
2022-11-23T09:05:36.548Z,22.18
2022-11-23T09:06:38.700Z,22.16
2022-11-23T09:07:40.834Z,22.16
2022-11-23T09:08:45.187Z,22.15
2022-11-23T09:09:47.307Z,22.13
2022-11-23T09:10:49.389Z,22.12
2022-11-23T09:11:51.940Z,22.12
2022-11-23T09:12:54.017Z,22.14
2022-11-23T09:13:57.113Z,22.16
2022-11-23T09:15:00.311Z,22.19
2022-11-23T09:16:02.637Z,22.21
2022-11-23T09:17:04.942Z,22.23
2022-11-23T09:18:07.098Z,22.26
2022-11-23T09:19:13.241Z,22.29
2022-11-23T09:20:15.722Z,22.31
2022-11-23T09:21:17.812Z,22.33
2022-11-23T09:22:20.677Z,22.35
2022-11-23T09:23:23.085Z,22.38
2022-11-23T09:24:25.061Z,22.39
2022-11-23T09:25:27.260Z,22.41
2022-11-23T09:26:30.453Z,22.42
2022-11-23T09:27:32.635Z,22.44
2022-11-23T09:28:34.593Z,22.45
2022-11-23T09:29:37.529Z,22.47
2022-11-23T09:30:40.676Z,22.48
2022-11-23T09:31:42.923Z,22.50
2022-11-23T09:32:46.588Z,22.52
2022-11-23T09:33:53.747Z,22.53
2022-11-23T09:34:56.744Z,22.54
2022-11-23T09:36:00.096Z,22.56
2022-11-23T09:37:02.309Z,22.56
2022-11-23T09:38:04.351Z,22.57
2022-11-23T09:39:06.850Z,22.59
2022-11-23T09:41:30.697Z,22.72
2022-11-23T09:42:54.798Z,22.61
2022-11-23T09:45:35.011Z,22.76
2022-11-23T09:46:50.342Z,22.65
2022-11-23T09:48:25.326Z,22.66
2022-11-23T09:50:47.120Z,22.79
2022-11-23T09:51:50.685Z,22.67
2022-11-23T09:52:54.627Z,22.67
2022-11-23T09:54:05.086Z,22.67
2022-11-23T09:55:32.953Z,22.67
2022-11-23T09:56:36.285Z,22.68
2022-11-23T09:57:39.609Z,22.69
2022-11-23T09:58:43.758Z,22.70
2022-11-23T09:59:58.589Z,22.71
2022-11-23T10:01:05.918Z,22.71
2022-11-23T10:03:23.217Z,22.82
2022-11-23T10:04:25.484Z,22.73
2022-11-23T10:05:29.415Z,22.73
2022-11-23T10:06:35.462Z,22.73
2022-11-23T10:08:11.519Z,22.75
2022-11-23T10:10:53.452Z,22.85
2022-11-23T10:12:14.369Z,22.74
2022-11-23T10:13:23.717Z,22.73
2022-11-23T10:14:56.748Z,22.71
2022-11-23T10:16:19.526Z,22.71
2022-11-23T10:17:46.821Z,22.69
2022-11-23T10:19:14.136Z,22.67
2022-11-23T10:20:29.567Z,22.66
2022-11-23T10:21:52.127Z,22.65
2022-11-23T10:22:59.732Z,22.64
2022-11-23T10:24:12.107Z,22.62
